| time (UTC) | temp F | wind direction | speed MPH | gust MPH | rain 1hr in | rain 24hr in | rain mn in | humidity % | barometer mb |
| 20260509074505 | 58 | 75 | 0.0 | 0.0 | 0.00 | 0.00 | 0.00 | 54 | 1022.1 |
| 20260509073100 | 60 | 74 | 0.0 | 2.0 | 0.00 | 0.00 | 0.00 | 52 | 1022.0 |
| 20260509071608 | 62 | 74 | 0.0 | 2.0 | 0.00 | 0.00 | 0.00 | 48 | 1021.8 |
| 20260509070051 | 64 | 74 | 0.0 | 2.0 | 0.00 | 0.00 | 0.00 | 46 | 1021.6 |
| 20260509064548 | 65 | 75 | 0.0 | 3.0 | 0.00 | 0.00 | 0.00 | 45 | 1021.5 |
| 20260509063045 | 66 | 85 | 2.0 | 4.0 | 0.00 | 0.00 | 0.00 | 44 | 1021.5 |
| 20260509061552 | 67 | 62 | 1.0 | 3.0 | 0.00 | 0.00 | 0.00 | 44 | 1021.4 |
| 20260509060039 | 67 | 180 | 0.0 | 2.0 | 0.00 | 0.00 | 0.00 | 43 | 1021.3 |
| 20260509054540 | 67 | 125 | 0.0 | 5.0 | 0.00 | 0.00 | 0.00 | 43 | 1021.3 |
| 20260509053033 | 67 | 191 | 0.0 | 5.0 | 0.00 | 0.00 | 0.00 | 43 | 1021.3 |
| 20260509051533 | 67 | 203 | 0.0 | 1.0 | 0.00 | 0.00 | 0.00 | 43 | 1021.2 |
| 20260509050126 | 67 | 203 | 2.0 | 6.0 | 0.00 | 0.00 | 0.00 | 43 | 1021.2 |
| 20260509044524 | 67 | 185 | 2.0 | 5.0 | 0.00 | 0.00 | 0.00 | 43 | 1021.2 |
| 20260509043021 | 66 | 274 | 0.0 | 5.0 | 0.00 | 0.00 | 0.00 | 45 | 1021.3 |
| 20260509041520 | 66 | 266 | 2.0 | 11.0 | 0.00 | 0.00 | 0.00 | 45 | 1021.3 |
| 20260509040013 | 66 | 256 | 5.0 | 11.0 | 0.00 | 0.00 | 0.00 | 45 | 1021.3 |
| 20260509034514 | 66 | 199 | 4.0 | 8.0 | 0.00 | 0.00 | 0.00 | 46 | 1021.4 |
| 20260509033010 | 65 | 124 | 0.0 | 4.0 | 0.00 | 0.00 | 0.00 | 48 | 1021.6 |
| 20260509031513 | 65 | 143 | 3.0 | 9.0 | 0.00 | 0.00 | 0.00 | 47 | 1021.7 |
| 20260509030039 | 64 | 210 | 0.0 | 9.0 | 0.00 | 0.00 | 0.00 | 49 | 1021.9 |
| 20260509024538 | 64 | 244 | 3.0 | 6.0 | 0.00 | 0.00 | 0.00 | 48 | 1022.0 |
| 20260509023030 | 63 | 219 | 1.0 | 9.0 | 0.00 | 0.00 | 0.00 | 50 | 1022.4 |
| 20260509021524 | 62 | 282 | 2.0 | 7.0 | 0.00 | 0.00 | 0.00 | 50 | 1022.7 |
| 20260509020021 | 62 | 280 | 4.0 | 7.0 | 0.00 | 0.00 | 0.00 | 51 | 1022.9 |
| 20260509014520 | 62 | 322 | 2.0 | 5.0 | 0.00 | 0.00 | 0.00 | 51 | 1023.0 |
| 20260509013021 | 61 | 242 | 3.0 | 6.0 | 0.00 | 0.00 | 0.00 | 57 | 1023.2 |
| 20260509011511 | 60 | 46 | 0.0 | 3.0 | 0.00 | 0.00 | 0.00 | 59 | 1023.3 |
| 20260509010013 | 59 | 132 | 0.0 | 3.0 | 0.00 | 0.00 | 0.00 | 63 | 1023.6 |
| 20260509004504 | 58 | 137 | 2.0 | 5.0 | 0.00 | 0.00 | 0.00 | 63 | 1023.8 |
| 20260509003029 | 56 | 139 | 0.0 | 4.0 | 0.00 | 0.00 | 0.00 | 67 | 1024.0 |
| 20260509001525 | 56 | 131 | 1.0 | 4.0 | 0.00 | 0.00 | 0.00 | 68 | 1024.1 |
| 20260508234546 | 52 | 337 | 1.0 | 3.0 | 0.00 | 0.00 | 0.00 | 81 | 1024.3 |
| 20260508233040 | 50 | 326 | 0.0 | 1.0 | 0.00 | 0.00 | 0.00 | 87 | 1024.5 |
| 20260508231537 | 47 | 326 | 0.0 | 0.0 | 0.00 | 0.00 | 0.00 | 95 | 1024.6 |
| 20260508230035 | 44 | 326 | 0.0 | 0.0 | 0.00 | 0.00 | 0.00 | 94 | 1024.6 |
| 20260508224533 | 42 | 326 | 0.0 | 1.0 | 0.00 | 0.00 | 0.00 | 94 | 1024.5 |
| 20260508223100 | 41 | 326 | 0.0 | 2.0 | 0.00 | 0.00 | 0.00 | 94 | 1024.4 |
| 20260508221559 | 40 | 326 | 0.0 | 0.0 | 0.00 | 0.00 | 0.00 | 94 | 1024.3 |
| 20260508220027 | 38 | 326 | 0.0 | 0.0 | 0.00 | 0.00 | 0.00 | 94 | 1024.2 |
| 20260508214516 | 36 | 326 | 0.0 | 0.0 | 0.00 | 0.00 | 0.00 | 92 | 1024.1 |
| 20260508213012 | 35 | 326 | 0.0 | 0.0 | 0.00 | 0.00 | 0.00 | 92 | 1023.9 |
| 20260508211503 | 33 | 326 | 0.0 | 0.0 | 0.00 | 0.00 | 0.00 | 90 | 1023.8 |
| 20260508210100 | 32 | 326 | 0.0 | 0.0 | 0.00 | 0.00 | 0.00 | 88 | 1023.7 |
| 20260508204615 | 33 | 326 | 0.0 | 0.0 | 0.00 | 0.00 | 0.00 | 89 | 1023.3 |
| 20260508203058 | 33 | 326 | 0.0 | 0.0 | 0.00 | 0.00 | 0.00 | 89 | 1023.2 |
| 20260508201521 | 34 | 326 | 0.0 | 0.0 | 0.00 | 0.00 | 0.00 | 89 | 1023.0 |
| 20260508200019 | 34 | 326 | 0.0 | 0.0 | 0.00 | 0.00 | 0.00 | 89 | 1022.8 |
| 20260508194549 | 34 | 326 | 0.0 | 0.0 | 0.00 | 0.00 | 0.00 | 89 | 1022.5 |
| 20260508193053 | 34 | 326 | 0.0 | 0.0 | 0.00 | 0.00 | 0.00 | 89 | 1022.2 |
| 20260508191537 | 35 | 326 | 0.0 | 0.0 | 0.00 | 0.00 | 0.00 | 88 | 1022.1 |
| 20260508190041 | 35 | 326 | 0.0 | 0.0 | 0.00 | 0.00 | 0.00 | 88 | 1022.0 |
| 20260508184535 | 35 | 326 | 0.0 | 0.0 | 0.00 | 0.00 | 0.00 | 88 | 1021.9 |
| 20260508183036 | 36 | 326 | 0.0 | 0.0 | 0.00 | 0.00 | 0.00 | 88 | 1021.8 |
| 20260508181543 | 36 | 326 | 0.0 | 0.0 | 0.00 | 0.00 | 0.00 | 87 | 1021.9 |
| 20260508180023 | 37 | 326 | 0.0 | 0.0 | 0.00 | 0.00 | 0.00 | 87 | 1021.7 |
| 20260508174525 | 37 | 326 | 0.0 | 0.0 | 0.00 | 0.00 | 0.00 | 88 | 1021.6 |
| 20260508173019 | 37 | 326 | 0.0 | 0.0 | 0.00 | 0.00 | 0.00 | 87 | 1021.7 |
| 20260508171515 | 38 | 326 | 0.0 | 0.0 | 0.00 | 0.00 | 0.00 | 87 | 1021.8 |
| 20260508170014 | 38 | 326 | 0.0 | 0.0 | 0.00 | 0.00 | 0.00 | 87 | 1021.8 |
| 20260508164515 | 38 | 326 | 0.0 | 0.0 | 0.00 | 0.00 | 0.00 | 86 | 1021.9 |
| 20260508163007 | 39 | 308 | 0.0 | 2.0 | 0.00 | 0.00 | 0.00 | 86 | 1021.6 |
| 20260508161503 | 39 | 308 | 0.0 | 0.0 | 0.00 | 0.00 | 0.00 | 86 | 1021.7 |
| 20260508160058 | 40 | 308 | 0.0 | 0.0 | 0.00 | 0.00 | 0.00 | 85 | 1021.7 |
| 20260508154558 | 40 | 308 | 0.0 | 0.0 | 0.00 | 0.00 | 0.00 | 84 | 1021.6 |
| 20260508153053 | 41 | 308 | 0.0 | 1.0 | 0.00 | 0.00 | 0.00 | 82 | 1021.6 |
| 20260508151545 | 43 | 308 | 0.0 | 2.0 | 0.00 | 0.00 | 0.00 | 82 | 1021.6 |
| 20260508150044 | 45 | 307 | 1.0 | 3.0 | 0.00 | 0.00 | 0.00 | 82 | 1021.5 |
| 20260508144543 | 45 | 307 | 2.0 | 6.0 | 0.00 | 0.00 | 0.00 | 83 | 1021.5 |
| 20260508143043 | 44 | 323 | 2.0 | 3.0 | 0.00 | 0.00 | 0.00 | 83 | 1021.4 |
| 20260508141511 | 43 | 322 | 0.0 | 4.0 | 0.00 | 0.00 | 0.00 | 81 | 1021.5 |
| 20260508140009 | 43 | 311 | 3.0 | 5.0 | 0.00 | 0.00 | 0.00 | 78 | 1021.4 |
| 20260508134559 | 46 | 240 | 0.0 | 0.0 | 0.00 | 0.00 | 0.00 | 77 | 1021.5 |
| 20260508133102 | 48 | 240 | 0.0 | 1.0 | 0.00 | 0.00 | 0.00 | 78 | 1021.4 |
| 20260508131602 | 48 | 234 | 0.0 | 1.0 | 0.00 | 0.00 | 0.00 | 76 | 1021.5 |
| 20260508130053 | 49 | 234 | 0.0 | 3.0 | 0.00 | 0.00 | 0.00 | 77 | 1021.5 |
| 20260508124545 | 49 | 233 | 0.0 | 5.0 | 0.00 | 0.00 | 0.00 | 76 | 1021.7 |
| 20260508123043 | 49 | 234 | 0.0 | 3.0 | 0.00 | 0.00 | 0.00 | 75 | 1021.7 |
| 20260508121541 | 50 | 222 | 0.0 | 2.0 | 0.00 | 0.00 | 0.00 | 74 | 1021.9 |
| 20260508120039 | 51 | 222 | 1.0 | 4.0 | 0.00 | 0.00 | 0.00 | 73 | 1021.9 |
| 20260508114505 | 51 | 226 | 0.0 | 2.0 | 0.00 | 0.00 | 0.00 | 72 | 1022.0 |
| 20260508113005 | 51 | 226 | 0.0 | 3.0 | 0.00 | 0.00 | 0.00 | 71 | 1021.9 |
| 20260508111601 | 52 | 216 | 1.0 | 7.0 | 0.00 | 0.00 | 0.00 | 72 | 1021.8 |
| 20260508110103 | 52 | 202 | 3.0 | 6.0 | 0.00 | 0.00 | 0.00 | 71 | 1021.9 |
| 20260508104558 | 52 | 214 | 7.0 | 12.0 | 0.00 | 0.00 | 0.00 | 71 | 1021.7 |
| 20260508103126 | 52 | 212 | 5.0 | 14.0 | 0.00 | 0.00 | 0.00 | 71 | 1021.8 |
| 20260508101559 | 52 | 196 | 7.0 | 15.0 | 0.00 | 0.00 | 0.00 | 71 | 1021.6 |
| 20260508100048 | 52 | 199 | 8.0 | 14.0 | 0.00 | 0.00 | 0.00 | 70 | 1021.5 |
| 20260508094603 | 52 | 224 | 1.0 | 11.0 | 0.00 | 0.00 | 0.00 | 70 | 1021.4 |
| 20260508093046 | 52 | 224 | 4.0 | 11.0 | 0.00 | 0.00 | 0.00 | 70 | 1021.3 |
| 20260508091540 | 52 | 212 | 9.0 | 14.0 | 0.00 | 0.00 | 0.00 | 70 | 1021.1 |
| 20260508090041 | 52 | 216 | 6.0 | 14.0 | 0.00 | 0.00 | 0.00 | 70 | 1021.1 |
| 20260508084536 | 52 | 241 | 3.0 | 9.0 | 0.00 | 0.00 | 0.00 | 70 | 1020.7 |
| 20260508083037 | 52 | 209 | 6.0 | 18.0 | 0.00 | 0.00 | 0.00 | 70 | 1020.5 |
| 20260508081527 | 52 | 226 | 7.0 | 14.0 | 0.00 | 0.00 | 0.00 | 69 | 1020.4 |
| 20260508080025 | 52 | 236 | 9.0 | 18.0 | 0.00 | 0.00 | 0.00 | 69 | 1019.9 |